Time;durP1;ratioP1;P1;durP2;ratioP2;P2;SDS_P1;SDS_P2;PMS_P1;PMS_P2;Temp;Humidity;BMP_temperature;BMP_pressure;BME280_temperature;BME280_humidity;BME280_pressure;Samples;Min_cycle;Max_cycle;Signal;HPM_P1;HPM_P2
2023/12/27 14:24:02;;;;;;;0.28;0.20;;;;;;;12.43;100.00;97412.16;7262836;19;3118004;-58
2023/12/27 14:26:30;;;;;;;0.10;0.08;;;;;;;12.37;100.00;97405.97;7430664;19;20014;-59
2023/12/27 14:28:57;;;;;;;0.10;0.10;;;;;;;12.44;100.00;97413.66;7425154;19;20488;-59
2023/12/27 14:31:25;;;;;;;0.10;0.00;;;;;;;12.43;100.00;97406.59;7426754;19;20017;-59
2023/12/27 14:33:52;;;;;;;0.40;0.17;;;;;;;12.75;100.00;97396.56;7428196;19;20014;-59
2023/12/27 14:36:18;;;;;;;0.55;0.32;;;;;;;12.60;100.00;97404.84;7424320;19;20014;-59
2023/12/27 14:38:45;;;;;;;0.10;0.05;;;;;;;12.52;100.00;97409.63;7430691;19;20033;-58
2023/12/27 14:41:12;;;;;;;6.13;0.40;;;;;;;12.47;100.00;97393.03;7425919;19;20480;-58
2023/12/27 14:43:38;;;;;;;0.55;0.10;;;;;;;12.55;100.00;97383.41;7425757;19;20002;-58
2023/12/27 14:46:09;;;;;;;0.10;0.10;;;;;;;12.88;100.00;97396.44;7433431;19;20014;-58
2023/12/27 14:48:36;;;;;;;0.10;0.00;;;;;;;12.33;100.00;97430.69;7430540;19;20476;-58
2023/12/27 14:51:03;;;;;;;0.50;0.38;;;;;;;13.48;100.00;97407.16;7431093;19;20346;-58
2023/12/27 14:53:33;;;;;;;0.73;0.10;;;;;;;13.28;100.00;97393.28;7430117;19;20014;-58
2023/12/27 14:56:00;;;;;;;0.38;0.25;;;;;;;13.10;100.00;97411.09;7432833;19;20376;-58
2023/12/27 14:58:26;;;;;;;0.10;0.10;;;;;;;12.29;100.00;97431.03;7431520;19;20034;-58
2023/12/27 15:00:52;;;;;;;0.60;0.20;;;;;;;12.17;100.00;97436.13;7430016;19;20014;-59
2023/12/27 15:03:20;;;;;;;0.22;0.10;;;;;;;12.10;100.00;97439.63;7427194;19;20070;-58
2023/12/27 15:05:46;;;;;;;0.25;0.10;;;;;;;12.10;100.00;97438.88;7431469;19;20006;-59
2023/12/27 15:08:12;;;;;;;1.85;0.20;;;;;;;13.15;100.00;97430.50;7429156;19;20018;-59
2023/12/27 15:10:38;;;;;;;0.17;0.17;;;;;;;12.38;100.00;97432.59;7430476;19;20640;-59
2023/12/27 15:13:05;;;;;;;0.10;0.10;;;;;;;13.57;100.00;97450.63;7428570;19;20074;-59
2023/12/27 15:15:31;;;;;;;0.10;0.10;;;;;;;12.27;100.00;97469.16;7428959;19;20015;-60
2023/12/27 15:17:58;;;;;;;0.75;0.38;;;;;;;12.14;100.00;97483.91;7429367;19;20011;-59
2023/12/27 15:20:24;;;;;;;0.17;0.17;;;;;;;13.21;100.00;97484.19;7430430;19;20033;-60
2023/12/27 15:22:53;;;;;;;1.13;0.30;;;;;;;12.20;100.00;97484.53;7426607;19;20010;-59
2023/12/27 15:25:19;;;;;;;0.10;0.10;;;;;;;12.24;100.00;97500.91;7429417;19;20013;-59
2023/12/27 15:27:45;;;;;;;0.30;0.13;;;;;;;12.36;100.00;97502.16;7428101;19;20014;-59
2023/12/27 15:30:13;;;;;;;0.08;0.03;;;;;;;14.17;100.00;97498.34;7427281;19;20659;-59
2023/12/27 15:32:41;;;;;;;0.03;0.00;;;;;;;13.53;100.00;97509.72;7426572;19;20018;-59
2023/12/27 15:35:09;;;;;;;0.20;0.10;;;;;;;12.84;100.00;97507.75;7401808;19;20023;-59
2023/12/27 15:37:35;;;;;;;0.03;0.00;;;;;;;12.01;100.00;97512.63;7397410;19;20018;-59
2023/12/27 15:40:02;;;;;;;0.22;0.08;;;;;;;12.90;100.00;97538.34;7398335;19;20085;-59
2023/12/27 15:42:28;;;;;;;1.35;0.15;;;;;;;11.61;100.00;97552.28;7397439;19;20015;-59
2023/12/27 15:44:55;;;;;;;0.22;0.10;;;;;;;14.04;100.00;97534.88;7400224;19;20038;-59
2023/12/27 15:47:21;;;;;;;1.10;0.30;;;;;;;12.93;100.00;97542.84;7398956;19;20037;-59
2023/12/27 15:49:47;;;;;;;0.50;0.20;;;;;;;13.81;100.00;97524.91;7400190;19;20018;-59
2023/12/27 15:52:13;;;;;;;0.10;0.10;;;;;;;27.37;100.00;97520.41;7398174;19;20015;-59
2023/12/27 16:00:52;;;;;;;2.78;0.15;;;;;;;16.60;nan;97573.03;7398605;19;20094;-54
2023/12/27 16:06:21;;;;;;;0.63;0.20;;;;;;;12.37;nan;97606.91;7401457;19;20022;-84
2023/12/27 16:08:51;;;;;;;0.20;0.10;;;;;;;12.01;nan;97620.66;7400666;19;20497;-87
2023/12/27 16:11:18;;;;;;;0.30;0.20;;;;;;;11.30;nan;97637.50;7399796;19;20022;-87
2023/12/27 16:13:45;;;;;;;0.63;0.15;;;;;;;11.53;nan;97638.56;7397973;19;20355;-83
2023/12/27 16:16:12;;;;;;;3.50;0.50;;;;;;;13.06;nan;97595.88;7401090;19;20006;-90
2023/12/27 16:18:39;;;;;;;1.98;0.17;;;;;;;21.99;nan;97592.34;7395838;19;20507;-83
2023/12/27 16:21:07;;;;;;;0.10;0.00;;;;;;;16.12;nan;97594.03;7393648;19;20465;-84
2023/12/27 16:23:34;;;;;;;0.13;0.05;;;;;;;12.68;nan;97589.19;7394291;19;20341;-88
2023/12/27 16:26:00;;;;;;;0.22;0.10;;;;;;;12.50;nan;97595.69;7396142;19;20010;-87
2023/12/27 16:28:26;;;;;;;0.22;0.22;;;;;;;10.76;nan;97612.88;7392265;19;20087;-88
2023/12/27 16:30:54;;;;;;;0.10;0.10;;;;;;;10.31;nan;97610.00;7394717;19;20010;-91
2023/12/27 16:33:20;;;;;;;0.55;0.20;;;;;;;29.02;nan;97610.28;7393158;19;20479;-89
2023/12/27 16:35:55;;;;;;;0.60;0.17;;;;;;;14.83;nan;97617.97;7396260;19;20018;-90
2023/12/27 16:38:22;;;;;;;1.00;0.55;;;;;;;11.27;nan;97635.78;7393694;19;20022;-89
2023/12/27 16:40:53;;;;;;;0.20;0.10;;;;;;;10.24;nan;97646.78;7395798;19;20014;-88
2023/12/27 16:43:21;;;;;;;0.30;0.30;;;;;;;10.10;nan;97667.41;7392199;19;20684;-88
2023/12/27 16:45:47;;;;;;;0.10;0.10;;;;;;;13.06;nan;97656.59;7386800;19;20025;-88
2023/12/27 16:48:15;;;;;;;0.10;0.10;;;;;;;26.38;nan;97638.56;7386793;19;20476;-88
2023/12/27 16:50:47;;;;;;;0.55;0.30;;;;;;;33.86;nan;97620.28;7391974;19;20015;-87
2023/12/27 16:53:15;;;;;;;0.10;0.10;;;;;;;34.64;nan;97628.94;7388330;19;20014;-87
2023/12/27 16:55:43;;;;;;;4.35;0.47;;;;;;;17.78;nan;97651.94;7391316;19;20090;-90
2023/12/27 16:58:10;;;;;;;0.88;0.63;;;;;;;15.61;nan;97649.78;7387340;19;20043;-90
2023/12/27 17:00:38;;;;;;;0.57;0.20;;;;;;;12.38;nan;97655.88;7391605;19;20523;-91
2023/12/27 17:03:06;;;;;;;1.45;0.73;;;;;;;14.10;nan;97650.19;7387887;19;20014;-90
2023/12/27 17:05:33;;;;;;;8.40;1.27;;;;;;;13.44;nan;97661.22;7391740;19;20014;-91
2023/12/27 17:08:03;;;;;;;3.92;0.82;;;;;;;10.81;nan;97669.72;7393254;19;20038;-90
2023/12/27 17:10:29;;;;;;;0.40;0.40;;;;;;;9.60;nan;97662.47;7395515;19;20014;-90
2023/12/27 17:12:56;;;;;;;4.78;1.00;;;;;;;9.12;nan;97668.75;7392785;19;20014;-90
2023/12/27 17:15:23;;;;;;;7.40;1.05;;;;;;;10.37;nan;97666.31;7392918;19;20018;-91
2023/12/27 17:17:50;;;;;;;0.90;0.65;;;;;;;9.34;nan;97680.91;7397055;19;20388;-91
2023/12/27 17:20:16;;;;;;;0.73;0.73;;;;;;;8.76;nan;97697.81;7396713;19;20027;-91
2023/12/27 17:22:43;;;;;;;6.30;0.75;;;;;;;11.74;nan;97695.22;7391277;19;20015;-91
2023/12/27 17:25:10;;;;;;;0.75;0.60;;;;;;;9.96;nan;97701.22;7393222;19;20023;-90
2023/12/27 17:27:37;;;;;;;2.47;0.50;;;;;;;15.32;nan;97701.72;7393064;19;20042;-87
2023/12/27 17:30:07;;;;;;;2.88;0.40;;;;;;;29.08;nan;97676.44;7394815;19;20046;-93
2023/12/27 17:32:35;;;;;;;0.52;0.47;;;;;;;32.44;nan;97681.16;7392577;19;20010;-92
2023/12/27 17:35:01;;;;;;;19.00;1.45;;;;;;;13.45;nan;97710.22;7394187;19;20019;-92
2023/12/27 17:37:27;;;;;;;1.35;0.20;;;;;;;10.55;nan;97718.44;7391425;19;20014;-90
2023/12/27 17:39:53;;;;;;;9.32;0.38;;;;;;;10.48;nan;97724.59;7394714;19;20082;-89
2023/12/27 17:42:19;;;;;;;1.00;0.85;;;;;;;28.72;nan;97700.78;7391193;19;20026;-87
2023/12/27 17:44:45;;;;;;;0.47;0.47;;;;;;;16.52;nan;97724.03;7392023;19;20087;-86
2023/12/27 17:47:12;;;;;;;3.53;0.40;;;;;;;27.87;nan;97702.81;7393488;19;20018;-88
2023/12/27 17:49:38;;;;;;;0.73;0.47;;;;;;;14.98;nan;97730.09;7394153;19;20070;-87
2023/12/27 17:52:04;;;;;;;0.65;0.15;;;;;;;32.88;nan;97700.31;7391213;19;20033;-87
2023/12/27 17:57:35;;;;;;;0.20;0.10;;;;;;;23.94;nan;97724.75;7393509;19;20019;-54
2023/12/27 18:00:04;;;;;;;0.57;0.40;;;;;;;35.80;nan;97714.63;7396240;19;20006;-54
2023/12/27 18:02:33;;;;;;;0.40;0.30;;;;;;;36.17;nan;97738.31;7392403;19;20018;-54
2023/12/27 18:05:00;;;;;;;1.42;0.77;;;;;;;34.92;nan;97731.38;7395414;19;20018;-54
2023/12/27 18:07:27;;;;;;;0.80;0.47;;;;;;;34.02;nan;97741.22;7392818;19;20505;-55
2023/12/27 18:09:54;;;;;;;0.10;0.10;;;;;;;36.68;nan;97751.94;7395591;19;20003;-55
2023/12/27 18:12:20;;;;;;;1.13;0.65;;;;;;;27.59;nan;97753.00;7391920;19;20015;-55
2023/12/27 18:14:49;;;;;;;0.10;0.03;;;;;;;33.48;nan;97740.72;7393760;19;20506;-55
2023/12/27 18:17:15;;;;;;;0.10;0.10;;;;;;;35.25;nan;97741.34;7392332;19;20015;-55
2023/12/27 18:19:45;;;;;;;0.68;0.32;;;;;;;27.92;nan;97740.91;7392872;19;20006;-61
2023/12/27 18:22:53;;;;;;;0.20;0.10;;;;;;;35.09;nan;97738.19;7390044;19;20019;-60
2023/12/27 18:25:24;;;;;;;0.20;0.20;;;;;;;36.19;nan;97755.75;7396801;19;20014;-55
2023/12/27 18:27:52;;;;;;;0.10;0.10;;;;;;;34.55;nan;97745.88;7391445;19;20010;-61
2023/12/27 18:30:22;;;;;;;0.20;0.15;;;;;;;36.27;nan;97758.72;7395036;19;20097;-60
2023/12/27 18:32:51;;;;;;;3.72;0.30;;;;;;;33.61;nan;97766.28;7390639;19;20014;-60
2023/12/27 18:35:19;;;;;;;0.22;0.22;;;;;;;29.75;nan;97765.84;7393348;19;20019;-60
2023/12/27 18:37:51;;;;;;;0.63;0.28;;;;;;;32.92;nan;97763.13;7390536;19;20014;-60
2023/12/27 18:40:19;;;;;;;0.55;0.30;;;;;;;35.82;nan;97759.56;7394705;19;20018;-55
2023/12/27 18:42:46;;;;;;;0.10;0.10;;;;;;;36.09;nan;97746.91;7392094;19;20011;-55
2023/12/27 18:45:12;;;;;;;0.13;0.13;;;;;;;36.56;nan;97746.00;7394484;19;20044;-55
2023/12/27 18:47:39;;;;;;;10.55;0.57;;;;;;;37.44;nan;97748.28;7394462;19;20454;-55
2023/12/27 18:50:06;;;;;;;0.70;0.30;;;;;;;15.30;nan;97774.44;7393315;19;20029;-55
2023/12/27 18:52:33;;;;;;;0.10;0.10;;;;;;;32.63;nan;97770.31;7396207;19;20025;-55
